Flight Track Log - Related Links

Times and Time Zones

All times are in EDT time to prevent confusion due to time zone crossing. See the SWA650 flight status page for this flight to view local times or setup timezone preferences in your user account.

Time Position Orientation Groundspeed Altitude Reporting Facility
EDT Latitude Longitude Course Direction KTS MPH feet Rate Location/Type
Wed 09:02:48 AM 41.7500 -87.8000 196° South 189 217 2,500  Level Chicago TRACON
Wed 09:04:09 AM 41.6711 -87.8567 208° Southwest 231 266 5,700 2,727 Climbing Chicago Center
Wed 09:05:11 AM 41.5978 -87.9022 205° Southwest 282 325 9,000 3,048 Climbing Chicago Center
Wed 09:06:13 AM 41.5250 -87.9514 207° Southwest 291 335 12,000 3,024 Climbing Chicago Center
Wed 09:07:16 AM 41.4317 -88.0147 207° Southwest 341 392 15,300 2,784 Climbing Chicago Center
Wed 09:08:00 AM 41.2819 -88.0610 196° South  Level FlightAware Approximate
Wed 09:08:18 AM 41.3392 -88.0525 197° South 359 413 17,800  Level Chicago Center
Wed 09:09:20 AM 41.2419 -88.0847 194° South 361 415 20,000 1,548 Climbing Chicago Center
Wed 09:10:22 AM 41.1331 -88.0972 185° South 394 453 21,000 1,403 Climbing Chicago Center
Wed 09:11:24 AM 40.9981 -88.1144 185° South 406 467 22,900 1,500 Climbing Chicago Center
Wed 09:12:26 AM 40.8797 -88.1281 185° South 421 484 24,100 1,355 Climbing Chicago Center
Wed 09:13:28 AM 40.7603 -88.1431 185° South 431 496 25,700 919 Climbing Chicago Center
Wed 09:14:30 AM 40.6417 -88.1561 185° South 431 496 26,000 145 Climbing Chicago Center
Wed 09:15:32 AM 40.5267 -88.1900 193° South 429 494 26,000  Level Chicago Center
Wed 09:16:34 AM 40.3936 -88.2528 200° South 425 489 26,000  Level Chicago Center
Wed 09:17:36 AM 40.2825 -88.3058 200° South 425 489 26,000  Level Chicago Center
Wed 09:18:38 AM 40.1814 -88.3528 200° South 427 491 26,000 -240 Level Chicago Center
Wed 09:19:41 AM 40.0486 -88.4153 200° South 422 486 25,500 -720 Descending Chicago Center
Wed 09:20:43 AM 39.9361 -88.4678 200° South 429 494 24,500 -804 Descending Chicago Center
Wed 09:21:33 AM 39.8483 -88.5078 199° South 422 486 24,000 -268 Descending Kansas City Center
Wed 09:22:35 AM 39.7417 -88.5575 200° South 414 476 24,000  Level Kansas City Center
Wed 09:23:35 AM 39.6339 -88.6058 199° South 410 472 24,000  Level Kansas City Center
Wed 09:24:37 AM 39.5386 -88.6822 212° Southwest 405 466 24,000  Level Kansas City Center
Wed 09:25:40 AM 39.4503 -88.7781 220° Southwest 410 472 24,000  Level Kansas City Center
Wed 09:26:42 AM 39.3575 -88.8800 220° Southwest 417 480 24,000  Level Kansas City Center
Wed 09:27:42 AM 39.2675 -88.9764 220° Southwest 419 482 24,000  Level Kansas City Center
Wed 09:28:43 AM 39.1781 -89.0706 219° Southwest 417 480 24,000  Level Kansas City Center
Wed 09:29:46 AM 39.0850 -89.1881 224° Southwest 406 467 24,000 -1,161 Level Kansas City Center
Wed 09:30:47 AM 39.0531 -89.3414 255° West 408 470 21,600 -2,244 Descending Kansas City Center
Wed 09:31:49 AM 39.0217 -89.4744 253° West 395 455 19,400 -2,208 Descending Kansas City Center
Wed 09:32:52 AM 38.9914 -89.6122 254° West 376 433 17,000 -2,129 Descending Kansas City Center
Wed 09:33:53 AM 38.9517 -89.7350 247° West 375 432 15,000 -1,279 Descending Kansas City Center
Wed 09:34:54 AM 38.9192 -89.8392 248° West 350 403 14,400 -1,344 Descending Kansas City Center
Wed 09:35:58 AM 38.8844 -89.9469 248° West 343 395 12,200 -2,016 Descending Kansas City Center
Wed 09:36:59 AM 38.8439 -90.0764 248° West 329 379 10,200 -1,548 Descending Kansas City Center
Wed 09:38:02 AM 38.8133 -90.1714 248° West 295 339 9,000 -1,171 Descending Kansas City Center
Wed 09:39:02 AM 38.8167 -90.2622 273° West 279 321 7,800 -1,041 Descending Kansas City Center
Wed 09:40:03 AM 38.8517 -90.3383 301° West 262 302 6,900 -1,056 Descending Kansas City Center
Wed 09:41:07 AM 38.8853 -90.4111 301° West 249 287 5,600 -1,161 Descending Kansas City Center
Wed 09:42:07 AM 38.9239 -90.4958 300° West 236 272 4,500 -774 Descending Kansas City Center
Wed 09:43:11 AM 38.9117 -90.5575 256° West 239 275 4,000 -336 Descending Kansas City Center
Wed 09:44:12 AM 38.8575 -90.5622 184° South 228 262 3,800 -492 Descending Kansas City Center
Wed 09:45:13 AM 38.8169 -90.5072 133° Southeast 216 249 3,000 -968 Descending Kansas City Center
Wed 09:46:16 AM 38.7889 -90.4475 121° Southeast 204 235 1,800 -919 Descending Kansas City Center
Wed 09:47:17 AM 38.7692 -90.4003 118° Southeast 169 194 1,100 -581 Descending Kansas City Center
Wed 09:48:20 AM 38.7458 -90.3542 123° Southeast 151 174 600 -476 Descending Kansas City Center

Login

Don't have an account? Register now (free) for customized features, flight alerts, and more!